sensor_id;sensor_type;location;lat;lon;timestamp;temperature;humidity
3562;DHT22;1795;52.074;4.754;2022-08-05T00:02:26;21.80;99.90
3562;DHT22;1795;52.074;4.754;2022-08-05T00:04:55;21.70;99.90
3562;DHT22;1795;52.074;4.754;2022-08-05T00:07:23;21.80;99.90
3562;DHT22;1795;52.074;4.754;2022-08-05T00:10:11;21.70;99.90
3562;DHT22;1795;52.074;4.754;2022-08-05T00:12:40;21.70;99.90
3562;DHT22;1795;52.074;4.754;2022-08-05T00:15:23;21.70;99.90
3562;DHT22;1795;52.074;4.754;2022-08-05T00:18:11;21.70;99.90
3562;DHT22;1795;52.074;4.754;2022-08-05T00:20:48;21.70;99.90
3562;DHT22;1795;52.074;4.754;2022-08-05T00:23:16;21.60;99.90
3562;DHT22;1795;52.074;4.754;2022-08-05T00:26:05;21.70;99.90
3562;DHT22;1795;52.074;4.754;2022-08-05T00:28:35;21.60;99.90
3562;DHT22;1795;52.074;4.754;2022-08-05T00:31:06;21.60;99.90
3562;DHT22;1795;52.074;4.754;2022-08-05T00:33:36;21.60;99.90
3562;DHT22;1795;52.074;4.754;2022-08-05T00:36:24;21.60;99.90
3562;DHT22;1795;52.074;4.754;2022-08-05T00:39:13;21.50;99.90
3562;DHT22;1795;52.074;4.754;2022-08-05T00:41:45;21.60;99.90
3562;DHT22;1795;52.074;4.754;2022-08-05T00:44:21;21.50;99.90
3562;DHT22;1795;52.074;4.754;2022-08-05T00:46:58;21.50;99.90
3562;DHT22;1795;52.074;4.754;2022-08-05T00:49:31;21.50;99.90
3562;DHT22;1795;52.074;4.754;2022-08-05T00:52:17;21.50;99.90
3562;DHT22;1795;52.074;4.754;2022-08-05T00:54:54;21.40;99.90
3562;DHT22;1795;52.074;4.754;2022-08-05T00:57:24;21.40;99.90
3562;DHT22;1795;52.074;4.754;2022-08-05T01:00:12;21.40;99.90
3562;DHT22;1795;52.074;4.754;2022-08-05T01:02:44;21.40;99.90
3562;DHT22;1795;52.074;4.754;2022-08-05T01:05:15;21.30;99.90
3562;DHT22;1795;52.074;4.754;2022-08-05T01:07:43;21.30;99.90
3562;DHT22;1795;52.074;4.754;2022-08-05T01:10:36;21.30;99.90
3562;DHT22;1795;52.074;4.754;2022-08-05T01:13:09;21.20;99.90
3562;DHT22;1795;52.074;4.754;2022-08-05T01:15:53;21.20;99.90
3562;DHT22;1795;52.074;4.754;2022-08-05T01:18:29;21.20;99.90
3562;DHT22;1795;52.074;4.754;2022-08-05T01:21:07;21.20;99.90
3562;DHT22;1795;52.074;4.754;2022-08-05T01:24:07;21.20;99.90
3562;DHT22;1795;52.074;4.754;2022-08-05T01:26:49;21.10;99.90
3562;DHT22;1795;52.074;4.754;2022-08-05T01:29:29;21.10;99.90
3562;DHT22;1795;52.074;4.754;2022-08-05T01:32:03;21.10;99.90
3562;DHT22;1795;52.074;4.754;2022-08-05T01:34:43;21.10;99.90
3562;DHT22;1795;52.074;4.754;2022-08-05T01:37:18;21.00;99.90
3562;DHT22;1795;52.074;4.754;2022-08-05T01:39:52;21.10;99.90
3562;DHT22;1795;52.074;4.754;2022-08-05T01:42:25;21.00;99.90
3562;DHT22;1795;52.074;4.754;2022-08-05T01:44:58;21.00;99.90
3562;DHT22;1795;52.074;4.754;2022-08-05T01:47:30;21.00;99.90
3562;DHT22;1795;52.074;4.754;2022-08-05T01:50:11;20.90;99.90
3562;DHT22;1795;52.074;4.754;2022-08-05T01:52:42;20.90;99.90
3562;DHT22;1795;52.074;4.754;2022-08-05T01:55:18;20.90;99.90
3562;DHT22;1795;52.074;4.754;2022-08-05T01:57:48;20.90;99.90
3562;DHT22;1795;52.074;4.754;2022-08-05T02:00:42;20.90;99.90
3562;DHT22;1795;52.074;4.754;2022-08-05T02:03:16;20.80;99.90
3562;DHT22;1795;52.074;4.754;2022-08-05T02:05:59;20.80;99.90
3562;DHT22;1795;52.074;4.754;2022-08-05T02:08:47;20.80;99.90
3562;DHT22;1795;52.074;4.754;2022-08-05T02:11:25;20.80;99.90
3562;DHT22;1795;52.074;4.754;2022-08-05T02:14:03;20.80;99.90
3562;DHT22;1795;52.074;4.754;2022-08-05T02:16:44;20.80;99.90
3562;DHT22;1795;52.074;4.754;2022-08-05T02:19:24;20.70;99.90
3562;DHT22;1795;52.074;4.754;2022-08-05T02:22:04;20.70;99.90
3562;DHT22;1795;52.074;4.754;2022-08-05T02:24:55;20.70;99.90
3562;DHT22;1795;52.074;4.754;2022-08-05T02:27:26;20.70;99.90
3562;DHT22;1795;52.074;4.754;2022-08-05T02:30:16;20.60;99.90
3562;DHT22;1795;52.074;4.754;2022-08-05T02:32:49;20.60;99.90
3562;DHT22;1795;52.074;4.754;2022-08-05T02:35:19;20.60;99.90
3562;DHT22;1795;52.074;4.754;2022-08-05T02:37:55;20.60;99.90
3562;DHT22;1795;52.074;4.754;2022-08-05T02:40:26;20.60;99.90
3562;DHT22;1795;52.074;4.754;2022-08-05T02:42:54;20.50;99.90
3562;DHT22;1795;52.074;4.754;2022-08-05T02:45:24;20.50;99.90
3562;DHT22;1795;52.074;4.754;2022-08-05T02:48:15;20.50;99.90
3562;DHT22;1795;52.074;4.754;2022-08-05T02:50:43;20.50;99.90
3562;DHT22;1795;52.074;4.754;2022-08-05T02:53:16;20.50;99.90
3562;DHT22;1795;52.074;4.754;2022-08-05T02:55:46;20.40;99.90
3562;DHT22;1795;52.074;4.754;2022-08-05T02:58:22;20.40;99.90
3562;DHT22;1795;52.074;4.754;2022-08-05T03:00:54;20.40;99.90
3562;DHT22;1795;52.074;4.754;2022-08-05T03:03:25;20.40;99.90
3562;DHT22;1795;52.074;4.754;2022-08-05T03:06:02;20.40;99.90
3562;DHT22;1795;52.074;4.754;2022-08-05T03:08:51;20.30;99.90
3562;DHT22;1795;52.074;4.754;2022-08-05T03:11:21;20.30;99.90
3562;DHT22;1795;52.074;4.754;2022-08-05T03:14:10;20.30;99.90
3562;DHT22;1795;52.074;4.754;2022-08-05T03:16:39;20.30;99.90
3562;DHT22;1795;52.074;4.754;2022-08-05T03:19:09;20.20;99.90
3562;DHT22;1795;52.074;4.754;2022-08-05T03:21:42;20.20;99.90
3562;DHT22;1795;52.074;4.754;2022-08-05T03:24:16;20.20;99.90
3562;DHT22;1795;52.074;4.754;2022-08-05T03:26:56;20.20;99.90
3562;DHT22;1795;52.074;4.754;2022-08-05T03:29:24;20.20;99.90
3562;DHT22;1795;52.074;4.754;2022-08-05T03:32:13;20.10;99.90
3562;DHT22;1795;52.074;4.754;2022-08-05T03:34:44;20.10;99.90
3562;DHT22;1795;52.074;4.754;2022-08-05T03:37:18;20.10;99.90
3562;DHT22;1795;52.074;4.754;2022-08-05T03:39:54;20.10;99.90
3562;DHT22;1795;52.074;4.754;2022-08-05T03:42:26;20.00;99.90
3562;DHT22;1795;52.074;4.754;2022-08-05T03:44:54;20.00;99.90
3562;DHT22;1795;52.074;4.754;2022-08-05T03:47:22;20.00;99.90
3562;DHT22;1795;52.074;4.754;2022-08-05T03:49:57;20.00;99.90
3562;DHT22;1795;52.074;4.754;2022-08-05T03:52:28;20.00;99.90
3562;DHT22;1795;52.074;4.754;2022-08-05T03:55:25;19.90;99.90
3562;DHT22;1795;52.074;4.754;2022-08-05T03:58:16;19.90;99.90
3562;DHT22;1795;52.074;4.754;2022-08-05T04:00:54;19.90;99.90
3562;DHT22;1795;52.074;4.754;2022-08-05T04:03:26;19.90;99.90
3562;DHT22;1795;52.074;4.754;2022-08-05T04:05:57;19.90;99.90
3562;DHT22;1795;52.074;4.754;2022-08-05T04:08:26;19.80;99.90
3562;DHT22;1795;52.074;4.754;2022-08-05T04:11:03;19.80;99.90
3562;DHT22;1795;52.074;4.754;2022-08-05T04:13:38;19.80;99.90
3562;DHT22;1795;52.074;4.754;2022-08-05T04:16:17;19.80;99.90
3562;DHT22;1795;52.074;4.754;2022-08-05T04:18:51;19.70;99.90
3562;DHT22;1795;52.074;4.754;2022-08-05T04:21:24;19.70;99.90
3562;DHT22;1795;52.074;4.754;2022-08-05T04:24:12;19.70;99.90
3562;DHT22;1795;52.074;4.754;2022-08-05T04:26:48;19.70;99.90
3562;DHT22;1795;52.074;4.754;2022-08-05T04:29:17;19.60;99.90
3562;DHT22;1795;52.074;4.754;2022-08-05T04:31:45;19.60;99.90
3562;DHT22;1795;52.074;4.754;2022-08-05T04:34:15;19.60;99.90
3562;DHT22;1795;52.074;4.754;2022-08-05T04:37:01;19.60;99.90
3562;DHT22;1795;52.074;4.754;2022-08-05T04:39:30;19.50;99.90
3562;DHT22;1795;52.074;4.754;2022-08-05T04:42:01;19.50;99.90
3562;DHT22;1795;52.074;4.754;2022-08-05T04:44:29;19.50;99.90
3562;DHT22;1795;52.074;4.754;2022-08-05T04:46:57;19.40;99.90
3562;DHT22;1795;52.074;4.754;2022-08-05T04:49:36;19.40;99.90
3562;DHT22;1795;52.074;4.754;2022-08-05T04:52:25;19.40;99.90
3562;DHT22;1795;52.074;4.754;2022-08-05T04:54:54;19.40;99.90
3562;DHT22;1795;52.074;4.754;2022-08-05T04:57:23;19.30;99.90
3562;DHT22;1795;52.074;4.754;2022-08-05T04:59:55;19.30;99.90
3562;DHT22;1795;52.074;4.754;2022-08-05T05:02:24;19.30;99.90
3562;DHT22;1795;52.074;4.754;2022-08-05T05:05:06;19.30;99.90
3562;DHT22;1795;52.074;4.754;2022-08-05T05:07:59;19.20;99.90
3562;DHT22;1795;52.074;4.754;2022-08-05T05:10:28;19.20;99.90
3562;DHT22;1795;52.074;4.754;2022-08-05T05:12:59;19.20;99.90
3562;DHT22;1795;52.074;4.754;2022-08-05T05:15:30;19.20;99.90
3562;DHT22;1795;52.074;4.754;2022-08-05T05:18:19;19.20;99.90
3562;DHT22;1795;52.074;4.754;2022-08-05T05:21:00;19.20;99.90
3562;DHT22;1795;52.074;4.754;2022-08-05T05:23:30;19.10;99.90
3562;DHT22;1795;52.074;4.754;2022-08-05T05:26:18;19.10;99.90
3562;DHT22;1795;52.074;4.754;2022-08-05T05:28:58;19.10;99.90
3562;DHT22;1795;52.074;4.754;2022-08-05T05:31:28;19.00;99.90
3562;DHT22;1795;52.074;4.754;2022-08-05T05:33:57;19.00;99.90
3562;DHT22;1795;52.074;4.754;2022-08-05T05:36:29;19.00;99.90
3562;DHT22;1795;52.074;4.754;2022-08-05T05:38:58;19.00;99.90
3562;DHT22;1795;52.074;4.754;2022-08-05T05:41:30;19.00;99.90
3562;DHT22;1795;52.074;4.754;2022-08-05T05:44:07;19.00;99.90
3562;DHT22;1795;52.074;4.754;2022-08-05T05:46:55;19.00;99.90
3562;DHT22;1795;52.074;4.754;2022-08-05T05:49:28;19.00;99.90
3562;DHT22;1795;52.074;4.754;2022-08-05T05:51:58;19.00;99.90
3562;DHT22;1795;52.074;4.754;2022-08-05T05:54:33;19.00;99.90
3562;DHT22;1795;52.074;4.754;2022-08-05T05:57:17;19.00;99.90
3562;DHT22;1795;52.074;4.754;2022-08-05T05:59:45;19.00;99.90
3562;DHT22;1795;52.074;4.754;2022-08-05T06:02:15;19.00;99.90
3562;DHT22;1795;52.074;4.754;2022-08-05T06:05:03;19.00;99.90
3562;DHT22;1795;52.074;4.754;2022-08-05T06:07:41;19.00;99.90
3562;DHT22;1795;52.074;4.754;2022-08-05T06:10:28;19.00;99.90
3562;DHT22;1795;52.074;4.754;2022-08-05T06:13:03;19.00;99.90
3562;DHT22;1795;52.074;4.754;2022-08-05T06:15:31;19.10;99.90
3562;DHT22;1795;52.074;4.754;2022-08-05T06:18:19;19.20;99.90
3562;DHT22;1795;52.074;4.754;2022-08-05T06:20:57;19.20;99.90
3562;DHT22;1795;52.074;4.754;2022-08-05T06:23:25;19.30;99.90
3562;DHT22;1795;52.074;4.754;2022-08-05T06:26:11;19.40;99.90
3562;DHT22;1795;52.074;4.754;2022-08-05T06:28:49;19.50;99.90
3562;DHT22;1795;52.074;4.754;2022-08-05T06:31:17;19.50;99.90
3562;DHT22;1795;52.074;4.754;2022-08-05T06:33:48;19.60;99.90
3562;DHT22;1795;52.074;4.754;2022-08-05T06:36:34;19.70;99.90
3562;DHT22;1795;52.074;4.754;2022-08-05T06:39:22;19.80;99.90
3562;DHT22;1795;52.074;4.754;2022-08-05T06:41:55;19.90;99.90
3562;DHT22;1795;52.074;4.754;2022-08-05T06:44:24;20.00;99.90
3562;DHT22;1795;52.074;4.754;2022-08-05T06:46:53;20.10;99.90
3562;DHT22;1795;52.074;4.754;2022-08-05T06:49:22;20.20;99.90
3562;DHT22;1795;52.074;4.754;2022-08-05T06:52:10;20.20;99.90
3562;DHT22;1795;52.074;4.754;2022-08-05T06:54:58;20.30;99.90
3562;DHT22;1795;52.074;4.754;2022-08-05T06:57:29;20.40;99.90
3562;DHT22;1795;52.074;4.754;2022-08-05T07:00:18;20.50;99.90
3562;DHT22;1795;52.074;4.754;2022-08-05T07:02:50;20.60;99.90
3562;DHT22;1795;52.074;4.754;2022-08-05T07:05:19;20.70;99.90
3562;DHT22;1795;52.074;4.754;2022-08-05T07:08:04;20.80;99.90
3562;DHT22;1795;52.074;4.754;2022-08-05T07:10:37;20.80;99.90
3562;DHT22;1795;52.074;4.754;2022-08-05T07:13:20;20.90;99.90
3562;DHT22;1795;52.074;4.754;2022-08-05T07:16:24;21.00;99.90
3562;DHT22;1795;52.074;4.754;2022-08-05T07:19:30;21.10;99.90
3562;DHT22;1795;52.074;4.754;2022-08-05T07:22:18;21.10;99.90
3562;DHT22;1795;52.074;4.754;2022-08-05T07:24:56;21.20;99.90
3562;DHT22;1795;52.074;4.754;2022-08-05T07:27:24;21.20;99.90
3562;DHT22;1795;52.074;4.754;2022-08-05T07:30:14;21.30;99.90
3562;DHT22;1795;52.074;4.754;2022-08-05T07:32:56;21.30;99.90
3562;DHT22;1795;52.074;4.754;2022-08-05T07:35:24;21.30;99.90
3562;DHT22;1795;52.074;4.754;2022-08-05T07:38:12;21.40;99.90
3562;DHT22;1795;52.074;4.754;2022-08-05T07:41:01;21.40;99.90
3562;DHT22;1795;52.074;4.754;2022-08-05T07:43:50;21.40;99.90
3562;DHT22;1795;52.074;4.754;2022-08-05T07:46:24;21.50;99.90
3562;DHT22;1795;52.074;4.754;2022-08-05T07:48:53;21.50;99.90
3562;DHT22;1795;52.074;4.754;2022-08-05T07:51:30;21.60;99.90
3562;DHT22;1795;52.074;4.754;2022-08-05T07:54:04;21.60;99.90
3562;DHT22;1795;52.074;4.754;2022-08-05T07:56:35;21.70;99.90
3562;DHT22;1795;52.074;4.754;2022-08-05T07:59:23;21.80;99.90
3562;DHT22;1795;52.074;4.754;2022-08-05T08:02:08;21.80;99.90
3562;DHT22;1795;52.074;4.754;2022-08-05T08:04:44;21.90;99.90
3562;DHT22;1795;52.074;4.754;2022-08-05T08:07:13;22.00;99.90
3562;DHT22;1795;52.074;4.754;2022-08-05T08:09:41;22.00;99.90
3562;DHT22;1795;52.074;4.754;2022-08-05T08:12:10;22.10;99.90
3562;DHT22;1795;52.074;4.754;2022-08-05T08:14:59;22.10;99.90
3562;DHT22;1795;52.074;4.754;2022-08-05T08:17:30;22.20;99.90
3562;DHT22;1795;52.074;4.754;2022-08-05T08:20:01;22.20;99.90
3562;DHT22;1795;52.074;4.754;2022-08-05T08:22:52;22.20;99.90
3562;DHT22;1795;52.074;4.754;2022-08-05T08:25:22;22.30;99.90
3562;DHT22;1795;52.074;4.754;2022-08-05T08:28:10;22.30;99.90
3562;DHT22;1795;52.074;4.754;2022-08-05T08:30:58;22.40;99.90
3562;DHT22;1795;52.074;4.754;2022-08-05T08:33:28;22.40;99.90
3562;DHT22;1795;52.074;4.754;2022-08-05T08:36:04;22.50;99.90
3562;DHT22;1795;52.074;4.754;2022-08-05T08:38:52;22.50;99.90
3562;DHT22;1795;52.074;4.754;2022-08-05T08:41:24;22.50;99.90
3562;DHT22;1795;52.074;4.754;2022-08-05T08:44:13;22.50;99.90
3562;DHT22;1795;52.074;4.754;2022-08-05T08:47:03;22.60;99.90
3562;DHT22;1795;52.074;4.754;2022-08-05T08:49:54;22.60;99.90
3562;DHT22;1795;52.074;4.754;2022-08-05T08:52:46;22.60;99.90
3562;DHT22;1795;52.074;4.754;2022-08-05T08:55:19;22.60;99.90
3562;DHT22;1795;52.074;4.754;2022-08-05T08:58:08;22.60;99.90
3562;DHT22;1795;52.074;4.754;2022-08-05T09:00:39;22.60;99.90
3562;DHT22;1795;52.074;4.754;2022-08-05T09:03:08;22.60;99.90
3562;DHT22;1795;52.074;4.754;2022-08-05T09:05:38;22.60;99.90
3562;DHT22;1795;52.074;4.754;2022-08-05T09:08:26;22.60;99.90
3562;DHT22;1795;52.074;4.754;2022-08-05T09:10:56;22.50;99.90
3562;DHT22;1795;52.074;4.754;2022-08-05T09:13:24;22.50;99.90
3562;DHT22;1795;52.074;4.754;2022-08-05T09:16:07;22.50;99.90
3562;DHT22;1795;52.074;4.754;2022-08-05T09:18:42;22.50;99.90
3562;DHT22;1795;52.074;4.754;2022-08-05T09:21:12;22.50;99.90
3562;DHT22;1795;52.074;4.754;2022-08-05T09:24:05;22.40;99.90
3562;DHT22;1795;52.074;4.754;2022-08-05T09:26:35;22.30;99.90
3562;DHT22;1795;52.074;4.754;2022-08-05T09:29:09;22.30;99.90
3562;DHT22;1795;52.074;4.754;2022-08-05T09:32:00;22.30;99.90
3562;DHT22;1795;52.074;4.754;2022-08-05T09:34:49;22.30;99.90
3562;DHT22;1795;52.074;4.754;2022-08-05T09:37:21;22.30;99.90
3562;DHT22;1795;52.074;4.754;2022-08-05T09:40:28;22.30;99.90
3562;DHT22;1795;52.074;4.754;2022-08-05T09:42:58;22.20;99.90
3562;DHT22;1795;52.074;4.754;2022-08-05T09:45:37;22.20;99.90
3562;DHT22;1795;52.074;4.754;2022-08-05T09:48:27;22.20;99.90
3562;DHT22;1795;52.074;4.754;2022-08-05T09:50:58;22.20;99.90
3562;DHT22;1795;52.074;4.754;2022-08-05T09:53:29;22.20;99.90
3562;DHT22;1795;52.074;4.754;2022-08-05T09:56:24;22.20;99.90
3562;DHT22;1795;52.074;4.754;2022-08-05T09:59:00;22.30;99.90
3562;DHT22;1795;52.074;4.754;2022-08-05T10:01:31;22.30;99.90
3562;DHT22;1795;52.074;4.754;2022-08-05T10:04:02;22.30;99.90
3562;DHT22;1795;52.074;4.754;2022-08-05T10:06:36;22.30;99.90
3562;DHT22;1795;52.074;4.754;2022-08-05T10:09:12;22.30;99.90
3562;DHT22;1795;52.074;4.754;2022-08-05T10:11:54;22.30;99.90
3562;DHT22;1795;52.074;4.754;2022-08-05T10:14:54;22.30;99.90
3562;DHT22;1795;52.074;4.754;2022-08-05T10:18:08;22.30;99.90
3562;DHT22;1795;52.074;4.754;2022-08-05T10:20:43;22.30;99.90
3562;DHT22;1795;52.074;4.754;2022-08-05T10:23:16;22.30;99.90
3562;DHT22;1795;52.074;4.754;2022-08-05T10:26:07;22.30;99.90
3562;DHT22;1795;52.074;4.754;2022-08-05T10:28:41;22.30;99.90
3562;DHT22;1795;52.074;4.754;2022-08-05T10:31:11;22.30;99.90
3562;DHT22;1795;52.074;4.754;2022-08-05T10:33:59;22.30;99.90
3562;DHT22;1795;52.074;4.754;2022-08-05T10:36:28;22.30;99.90
3562;DHT22;1795;52.074;4.754;2022-08-05T10:39:01;22.30;99.90
3562;DHT22;1795;52.074;4.754;2022-08-05T10:41:45;22.30;99.90
3562;DHT22;1795;52.074;4.754;2022-08-05T10:44:17;22.30;99.90
3562;DHT22;1795;52.074;4.754;2022-08-05T10:46:47;22.30;99.90
3562;DHT22;1795;52.074;4.754;2022-08-05T10:49:21;22.40;99.90
3562;DHT22;1795;52.074;4.754;2022-08-05T10:51:55;22.40;99.90
3562;DHT22;1795;52.074;4.754;2022-08-05T10:54:45;22.40;99.90
3562;DHT22;1795;52.074;4.754;2022-08-05T10:57:26;22.40;99.90
3562;DHT22;1795;52.074;4.754;2022-08-05T11:00:09;22.40;99.90
3562;DHT22;1795;52.074;4.754;2022-08-05T11:03:12;22.50;99.90
3562;DHT22;1795;52.074;4.754;2022-08-05T11:06:10;22.50;99.90
3562;DHT22;1795;52.074;4.754;2022-08-05T11:09:09;22.50;99.90
3562;DHT22;1795;52.074;4.754;2022-08-05T11:11:42;22.50;99.90
3562;DHT22;1795;52.074;4.754;2022-08-05T11:14:28;22.50;99.90
3562;DHT22;1795;52.074;4.754;2022-08-05T11:17:27;22.50;99.90
3562;DHT22;1795;52.074;4.754;2022-08-05T11:20:33;22.50;99.90
3562;DHT22;1795;52.074;4.754;2022-08-05T11:23:33;22.50;99.90
3562;DHT22;1795;52.074;4.754;2022-08-05T11:26:22;22.50;99.90
3562;DHT22;1795;52.074;4.754;2022-08-05T11:28:58;22.60;99.90
3562;DHT22;1795;52.074;4.754;2022-08-05T11:31:43;22.50;99.90
3562;DHT22;1795;52.074;4.754;2022-08-05T11:34:39;22.60;99.90
3562;DHT22;1795;52.074;4.754;2022-08-05T11:40:59;22.60;99.90
3562;DHT22;1795;52.074;4.754;2022-08-05T11:43:53;22.70;99.90
3562;DHT22;1795;52.074;4.754;2022-08-05T11:46:35;22.70;99.90
3562;DHT22;1795;52.074;4.754;2022-08-05T11:49:25;22.80;99.90
3562;DHT22;1795;52.074;4.754;2022-08-05T11:51:53;22.90;99.90
3562;DHT22;1795;52.074;4.754;2022-08-05T11:54:25;22.90;99.90
3562;DHT22;1795;52.074;4.754;2022-08-05T11:57:01;22.90;99.90
3562;DHT22;1795;52.074;4.754;2022-08-05T11:59:51;23.00;99.50
3562;DHT22;1795;52.074;4.754;2022-08-05T12:02:27;23.10;99.50
3562;DHT22;1795;52.074;4.754;2022-08-05T12:05:02;23.10;99.80
3562;DHT22;1795;52.074;4.754;2022-08-05T12:07:34;23.20;99.90
3562;DHT22;1795;52.074;4.754;2022-08-05T12:10:25;23.20;99.90
3562;DHT22;1795;52.074;4.754;2022-08-05T12:13:12;23.30;99.90
3562;DHT22;1795;52.074;4.754;2022-08-05T12:15:42;23.40;99.70
3562;DHT22;1795;52.074;4.754;2022-08-05T12:18:16;23.40;99.80
3562;DHT22;1795;52.074;4.754;2022-08-05T12:20:47;23.50;99.80
3562;DHT22;1795;52.074;4.754;2022-08-05T12:23:15;23.50;99.60
3562;DHT22;1795;52.074;4.754;2022-08-05T12:25:51;23.60;99.90
3562;DHT22;1795;52.074;4.754;2022-08-05T12:28:32;23.70;99.90
3562;DHT22;1795;52.074;4.754;2022-08-05T12:31:02;23.70;99.90
3562;DHT22;1795;52.074;4.754;2022-08-05T12:33:31;23.80;99.50
3562;DHT22;1795;52.074;4.754;2022-08-05T12:36:04;23.90;99.50
3562;DHT22;1795;52.074;4.754;2022-08-05T12:38:35;23.90;98.30
3562;DHT22;1795;52.074;4.754;2022-08-05T12:41:10;24.00;98.40
3562;DHT22;1795;52.074;4.754;2022-08-05T12:43:51;24.10;97.90
3562;DHT22;1795;52.074;4.754;2022-08-05T12:46:20;24.20;97.50
3562;DHT22;1795;52.074;4.754;2022-08-05T12:48:59;24.20;96.90
3562;DHT22;1795;52.074;4.754;2022-08-05T12:51:48;24.30;96.70
3562;DHT22;1795;52.074;4.754;2022-08-05T12:54:36;24.20;93.00
3562;DHT22;1795;52.074;4.754;2022-08-05T12:57:10;24.10;93.90
3562;DHT22;1795;52.074;4.754;2022-08-05T12:59:44;24.10;93.40
3562;DHT22;1795;52.074;4.754;2022-08-05T13:02:34;24.10;93.40
3562;DHT22;1795;52.074;4.754;2022-08-05T13:05:06;24.00;93.60
3562;DHT22;1795;52.074;4.754;2022-08-05T13:07:42;23.90;93.20
3562;DHT22;1795;52.074;4.754;2022-08-05T13:10:30;23.80;93.30
3562;DHT22;1795;52.074;4.754;2022-08-05T13:12:58;23.70;93.30
3562;DHT22;1795;52.074;4.754;2022-08-05T13:15:28;23.70;93.40
3562;DHT22;1795;52.074;4.754;2022-08-05T13:18:16;23.80;94.20
3562;DHT22;1795;52.074;4.754;2022-08-05T13:20:46;23.70;93.00
3562;DHT22;1795;52.074;4.754;2022-08-05T13:23:17;23.60;93.40
3562;DHT22;1795;52.074;4.754;2022-08-05T13:25:48;23.70;93.20
3562;DHT22;1795;52.074;4.754;2022-08-05T13:28:25;23.70;94.00
3562;DHT22;1795;52.074;4.754;2022-08-05T13:30:54;23.80;93.50
3562;DHT22;1795;52.074;4.754;2022-08-05T13:33:22;23.90;93.80
3562;DHT22;1795;52.074;4.754;2022-08-05T13:36:10;24.00;93.60
3562;DHT22;1795;52.074;4.754;2022-08-05T13:38:41;24.00;93.30
3562;DHT22;1795;52.074;4.754;2022-08-05T13:41:17;24.20;93.90
3562;DHT22;1795;52.074;4.754;2022-08-05T13:43:49;24.20;93.90
3562;DHT22;1795;52.074;4.754;2022-08-05T13:46:21;24.30;93.40
3562;DHT22;1795;52.074;4.754;2022-08-05T13:49:09;24.20;93.30
3562;DHT22;1795;52.074;4.754;2022-08-05T13:51:39;24.20;93.80
3562;DHT22;1795;52.074;4.754;2022-08-05T13:54:14;24.20;93.50
3562;DHT22;1795;52.074;4.754;2022-08-05T13:56:50;24.20;93.50
3562;DHT22;1795;52.074;4.754;2022-08-05T13:59:19;24.10;95.10
3562;DHT22;1795;52.074;4.754;2022-08-05T14:01:52;24.20;95.50
3562;DHT22;1795;52.074;4.754;2022-08-05T14:04:27;24.10;96.10
3562;DHT22;1795;52.074;4.754;2022-08-05T14:07:18;24.10;96.80
3562;DHT22;1795;52.074;4.754;2022-08-05T14:10:11;23.90;97.60
3562;DHT22;1795;52.074;4.754;2022-08-05T14:12:45;23.80;97.90
3562;DHT22;1795;52.074;4.754;2022-08-05T14:15:15;23.70;98.00
3562;DHT22;1795;52.074;4.754;2022-08-05T14:18:03;23.60;97.70
3562;DHT22;1795;52.074;4.754;2022-08-05T14:20:40;23.60;97.30
3562;DHT22;1795;52.074;4.754;2022-08-05T14:23:13;23.50;97.50
3562;DHT22;1795;52.074;4.754;2022-08-05T14:25:53;23.40;97.30
3562;DHT22;1795;52.074;4.754;2022-08-05T14:28:25;23.60;97.30
3562;DHT22;1795;52.074;4.754;2022-08-05T14:30:54;23.60;97.20
3562;DHT22;1795;52.074;4.754;2022-08-05T14:33:22;23.60;96.30
3562;DHT22;1795;52.074;4.754;2022-08-05T14:35:50;23.80;97.10
3562;DHT22;1795;52.074;4.754;2022-08-05T14:38:20;23.80;96.20
3562;DHT22;1795;52.074;4.754;2022-08-05T14:41:04;23.80;96.80
3562;DHT22;1795;52.074;4.754;2022-08-05T14:43:34;23.90;96.80
3562;DHT22;1795;52.074;4.754;2022-08-05T14:46:23;24.10;96.60
3562;DHT22;1795;52.074;4.754;2022-08-05T14:48:55;24.20;95.80
3562;DHT22;1795;52.074;4.754;2022-08-05T14:51:33;24.30;95.80
3562;DHT22;1795;52.074;4.754;2022-08-05T14:54:03;24.40;95.40
3562;DHT22;1795;52.074;4.754;2022-08-05T14:56:53;24.30;95.30
3562;DHT22;1795;52.074;4.754;2022-08-05T14:59:21;24.30;95.30
3562;DHT22;1795;52.074;4.754;2022-08-05T15:01:49;24.10;95.60
3562;DHT22;1795;52.074;4.754;2022-08-05T15:04:20;24.20;96.00
3562;DHT22;1795;52.074;4.754;2022-08-05T15:06:53;24.20;95.80
3562;DHT22;1795;52.074;4.754;2022-08-05T15:09:21;24.20;96.00
3562;DHT22;1795;52.074;4.754;2022-08-05T15:12:11;24.30;95.50
3562;DHT22;1795;52.074;4.754;2022-08-05T15:14:43;24.30;94.80
3562;DHT22;1795;52.074;4.754;2022-08-05T15:17:17;24.30;94.00
3562;DHT22;1795;52.074;4.754;2022-08-05T15:20:06;24.20;93.60
3562;DHT22;1795;52.074;4.754;2022-08-05T15:22:45;24.30;93.20
3562;DHT22;1795;52.074;4.754;2022-08-05T15:25:21;24.30;93.20
3562;DHT22;1795;52.074;4.754;2022-08-05T15:28:11;24.30;92.60
3562;DHT22;1795;52.074;4.754;2022-08-05T15:30:40;24.30;92.20
3562;DHT22;1795;52.074;4.754;2022-08-05T15:33:09;24.30;92.30
3562;DHT22;1795;52.074;4.754;2022-08-05T15:35:59;24.30;93.10
3562;DHT22;1795;52.074;4.754;2022-08-05T15:38:29;24.50;93.00
3562;DHT22;1795;52.074;4.754;2022-08-05T15:41:02;24.50;92.90
3562;DHT22;1795;52.074;4.754;2022-08-05T15:43:50;24.50;92.90
3562;DHT22;1795;52.074;4.754;2022-08-05T15:46:21;24.40;91.90
3562;DHT22;1795;52.074;4.754;2022-08-05T15:48:53;24.50;92.30
3562;DHT22;1795;52.074;4.754;2022-08-05T15:51:35;24.30;91.50
3562;DHT22;1795;52.074;4.754;2022-08-05T15:54:24;24.30;91.90
3562;DHT22;1795;52.074;4.754;2022-08-05T15:57:05;24.30;92.60
3562;DHT22;1795;52.074;4.754;2022-08-05T15:59:35;24.40;92.30
3562;DHT22;1795;52.074;4.754;2022-08-05T16:02:04;24.50;92.70
3562;DHT22;1795;52.074;4.754;2022-08-05T16:04:41;24.40;92.30
3562;DHT22;1795;52.074;4.754;2022-08-05T16:07:12;24.40;91.90
3562;DHT22;1795;52.074;4.754;2022-08-05T16:09:40;24.50;91.80
3562;DHT22;1795;52.074;4.754;2022-08-05T16:12:09;24.50;91.00
3562;DHT22;1795;52.074;4.754;2022-08-05T16:14:40;24.30;91.10
3562;DHT22;1795;52.074;4.754;2022-08-05T16:17:09;24.10;91.30
3562;DHT22;1795;52.074;4.754;2022-08-05T16:19:38;24.10;91.50
3562;DHT22;1795;52.074;4.754;2022-08-05T16:22:26;24.10;90.80
3562;DHT22;1795;52.074;4.754;2022-08-05T16:25:00;24.10;91.30
3562;DHT22;1795;52.074;4.754;2022-08-05T16:27:36;24.10;91.60
3562;DHT22;1795;52.074;4.754;2022-08-05T16:30:25;23.90;91.30
3562;DHT22;1795;52.074;4.754;2022-08-05T16:32:55;23.90;91.00
3562;DHT22;1795;52.074;4.754;2022-08-05T16:35:23;23.80;91.40
3562;DHT22;1795;52.074;4.754;2022-08-05T16:37:58;23.70;92.00
3562;DHT22;1795;52.074;4.754;2022-08-05T16:40:46;23.70;92.00
3562;DHT22;1795;52.074;4.754;2022-08-05T16:43:21;23.70;91.90
3562;DHT22;1795;52.074;4.754;2022-08-05T16:45:53;23.70;92.20
3562;DHT22;1795;52.074;4.754;2022-08-05T16:48:35;23.60;92.30
3562;DHT22;1795;52.074;4.754;2022-08-05T16:51:05;23.60;92.00
3562;DHT22;1795;52.074;4.754;2022-08-05T16:53:37;23.50;92.10
3562;DHT22;1795;52.074;4.754;2022-08-05T16:56:26;23.40;91.40
3562;DHT22;1795;52.074;4.754;2022-08-05T16:58:55;23.20;92.20
3562;DHT22;1795;52.074;4.754;2022-08-05T17:01:25;23.10;91.90
3562;DHT22;1795;52.074;4.754;2022-08-05T17:04:13;23.00;92.30
3562;DHT22;1795;52.074;4.754;2022-08-05T17:06:41;22.90;92.60
3562;DHT22;1795;52.074;4.754;2022-08-05T17:09:18;22.90;92.30
3562;DHT22;1795;52.074;4.754;2022-08-05T17:11:49;22.90;92.50
3562;DHT22;1795;52.074;4.754;2022-08-05T17:14:26;22.80;92.10